Terminal Aerodrome Forecast
Issued by NWS

Home | Current Version | Previous Version | Text Only | Print | Product List | Glossary On
Versions: 1 2 3 4 5 6 7 8 9 10 11 12 13 14 15 16 17 18 19 20 21 22 23 24 25 26 27 28 29 30 31 32 33 34
000
FTUS43 KDTX 111124
TAFPTK
TAF
KPTK 111124Z 1112/1212 15005KT 1 1/2SM -SN OVC015
     FM111500 15008KT 1SM -SN OVC009
     FM111900 16010KT 3/4SM -SN OVC008
     FM112100 16010KT 1/2SM SN OVC005
     FM120300 18010KT 3/4SM -SN OVC005
     FM120500 19010KT 3SM -SN OVC009
     FM120700 24010KT P6SM OVC009=

USA.gov is the U.S. government's official web portal to all federal, state and local government web resources and services.